sensor_id;sensor_type;location;lat;lon;timestamp;P1;durP1;ratioP1;P2;durP2;ratioP2
25073;SDS011;13066;52.042;5.648;2023-08-06T00:00:41;9.52;;;5.32;;
25073;SDS011;13066;52.042;5.648;2023-08-06T00:03:09;12.70;;;5.22;;
25073;SDS011;13066;52.042;5.648;2023-08-06T00:05:38;13.73;;;5.55;;
25073;SDS011;13066;52.042;5.648;2023-08-06T00:08:09;8.98;;;5.57;;
25073;SDS011;13066;52.042;5.648;2023-08-06T00:10:37;9.18;;;5.18;;
25073;SDS011;13066;52.042;5.648;2023-08-06T00:13:06;7.47;;;5.20;;
25073;SDS011;13066;52.042;5.648;2023-08-06T00:15:35;8.23;;;5.10;;
25073;SDS011;13066;52.042;5.648;2023-08-06T00:18:03;6.40;;;5.28;;
25073;SDS011;13066;52.042;5.648;2023-08-06T00:20:31;6.32;;;4.97;;
25073;SDS011;13066;52.042;5.648;2023-08-06T00:23:00;7.10;;;5.18;;
25073;SDS011;13066;52.042;5.648;2023-08-06T00:25:34;8.57;;;5.65;;
25073;SDS011;13066;52.042;5.648;2023-08-06T00:28:02;9.55;;;5.40;;
25073;SDS011;13066;52.042;5.648;2023-08-06T00:30:31;7.22;;;5.40;;
25073;SDS011;13066;52.042;5.648;2023-08-06T00:32:58;7.85;;;5.07;;
25073;SDS011;13066;52.042;5.648;2023-08-06T00:35:26;8.65;;;5.68;;
25073;SDS011;13066;52.042;5.648;2023-08-06T00:37:55;11.00;;;5.57;;
25073;SDS011;13066;52.042;5.648;2023-08-06T00:40:24;9.07;;;5.60;;
25073;SDS011;13066;52.042;5.648;2023-08-06T00:42:52;8.07;;;5.43;;
25073;SDS011;13066;52.042;5.648;2023-08-06T00:45:20;6.68;;;5.03;;
25073;SDS011;13066;52.042;5.648;2023-08-06T00:47:50;9.98;;;4.45;;
25073;SDS011;13066;52.042;5.648;2023-08-06T00:50:18;7.90;;;5.00;;
25073;SDS011;13066;52.042;5.648;2023-08-06T00:52:48;10.20;;;5.13;;
25073;SDS011;13066;52.042;5.648;2023-08-06T00:55:16;7.85;;;5.22;;
25073;SDS011;13066;52.042;5.648;2023-08-06T00:57:45;8.75;;;5.30;;
25073;SDS011;13066;52.042;5.648;2023-08-06T01:00:14;7.78;;;5.25;;
25073;SDS011;13066;52.042;5.648;2023-08-06T01:02:42;9.38;;;5.25;;
25073;SDS011;13066;52.042;5.648;2023-08-06T01:05:10;13.57;;;5.07;;
25073;SDS011;13066;52.042;5.648;2023-08-06T01:07:41;8.95;;;4.53;;
25073;SDS011;13066;52.042;5.648;2023-08-06T01:10:19;6.78;;;4.80;;
25073;SDS011;13066;52.042;5.648;2023-08-06T01:12:55;13.77;;;4.72;;
25073;SDS011;13066;52.042;5.648;2023-08-06T01:15:32;11.18;;;5.60;;
25073;SDS011;13066;52.042;5.648;2023-08-06T01:18:04;6.57;;;5.35;;
25073;SDS011;13066;52.042;5.648;2023-08-06T01:20:33;8.10;;;5.55;;
25073;SDS011;13066;52.042;5.648;2023-08-06T01:23:01;7.80;;;6.03;;
25073;SDS011;13066;52.042;5.648;2023-08-06T01:25:30;13.10;;;6.88;;
25073;SDS011;13066;52.042;5.648;2023-08-06T01:28:03;10.05;;;7.20;;
25073;SDS011;13066;52.042;5.648;2023-08-06T01:30:34;14.25;;;6.97;;
25073;SDS011;13066;52.042;5.648;2023-08-06T01:33:07;9.38;;;6.60;;
25073;SDS011;13066;52.042;5.648;2023-08-06T01:35:39;9.48;;;7.45;;
25073;SDS011;13066;52.042;5.648;2023-08-06T01:38:07;18.80;;;9.18;;
25073;SDS011;13066;52.042;5.648;2023-08-06T01:40:35;12.98;;;8.90;;
25073;SDS011;13066;52.042;5.648;2023-08-06T01:43:03;16.63;;;9.35;;
25073;SDS011;13066;52.042;5.648;2023-08-06T01:45:31;10.52;;;8.57;;
25073;SDS011;13066;52.042;5.648;2023-08-06T01:47:59;12.60;;;9.15;;
25073;SDS011;13066;52.042;5.648;2023-08-06T01:50:27;13.75;;;9.48;;
25073;SDS011;13066;52.042;5.648;2023-08-06T01:52:56;16.73;;;10.35;;
25073;SDS011;13066;52.042;5.648;2023-08-06T01:55:25;14.38;;;10.02;;
25073;SDS011;13066;52.042;5.648;2023-08-06T01:57:53;16.55;;;11.20;;
25073;SDS011;13066;52.042;5.648;2023-08-06T02:00:21;12.95;;;9.70;;
25073;SDS011;13066;52.042;5.648;2023-08-06T02:02:50;14.40;;;9.88;;
25073;SDS011;13066;52.042;5.648;2023-08-06T02:05:18;12.98;;;9.05;;
25073;SDS011;13066;52.042;5.648;2023-08-06T02:07:46;13.23;;;9.48;;
25073;SDS011;13066;52.042;5.648;2023-08-06T02:10:15;11.65;;;9.38;;
25073;SDS011;13066;52.042;5.648;2023-08-06T02:12:45;11.65;;;9.48;;
25073;SDS011;13066;52.042;5.648;2023-08-06T02:15:13;13.20;;;9.23;;
25073;SDS011;13066;52.042;5.648;2023-08-06T02:17:41;13.50;;;8.80;;
25073;SDS011;13066;52.042;5.648;2023-08-06T02:20:09;12.02;;;8.32;;
25073;SDS011;13066;52.042;5.648;2023-08-06T02:22:37;12.98;;;8.35;;
25073;SDS011;13066;52.042;5.648;2023-08-06T02:25:07;10.13;;;8.45;;
25073;SDS011;13066;52.042;5.648;2023-08-06T02:27:38;13.15;;;8.32;;
25073;SDS011;13066;52.042;5.648;2023-08-06T02:30:06;9.07;;;7.40;;
25073;SDS011;13066;52.042;5.648;2023-08-06T02:32:34;9.77;;;7.70;;
25073;SDS011;13066;52.042;5.648;2023-08-06T02:35:02;9.82;;;7.65;;
25073;SDS011;13066;52.042;5.648;2023-08-06T02:37:32;8.55;;;6.80;;
25073;SDS011;13066;52.042;5.648;2023-08-06T02:40:00;11.27;;;7.28;;
25073;SDS011;13066;52.042;5.648;2023-08-06T02:42:28;8.43;;;6.97;;
25073;SDS011;13066;52.042;5.648;2023-08-06T02:44:58;8.35;;;6.45;;
25073;SDS011;13066;52.042;5.648;2023-08-06T02:47:28;9.73;;;6.25;;
25073;SDS011;13066;52.042;5.648;2023-08-06T02:49:56;11.43;;;7.15;;
25073;SDS011;13066;52.042;5.648;2023-08-06T02:52:23;7.45;;;6.55;;
25073;SDS011;13066;52.042;5.648;2023-08-06T02:54:52;12.23;;;7.38;;
25073;SDS011;13066;52.042;5.648;2023-08-06T02:57:20;9.18;;;7.07;;
25073;SDS011;13066;52.042;5.648;2023-08-06T02:59:50;10.75;;;7.90;;
25073;SDS011;13066;52.042;5.648;2023-08-06T03:02:22;12.02;;;7.70;;
25073;SDS011;13066;52.042;5.648;2023-08-06T03:05:19;9.48;;;8.23;;
25073;SDS011;13066;52.042;5.648;2023-08-06T03:07:48;10.57;;;8.98;;
25073;SDS011;13066;52.042;5.648;2023-08-06T03:10:20;11.05;;;9.57;;
25073;SDS011;13066;52.042;5.648;2023-08-06T03:12:51;13.35;;;10.25;;
25073;SDS011;13066;52.042;5.648;2023-08-06T03:15:20;14.80;;;10.65;;
25073;SDS011;13066;52.042;5.648;2023-08-06T03:17:49;15.68;;;10.48;;
25073;SDS011;13066;52.042;5.648;2023-08-06T03:20:20;11.80;;;10.50;;
25073;SDS011;13066;52.042;5.648;2023-08-06T03:22:48;13.25;;;10.57;;
25073;SDS011;13066;52.042;5.648;2023-08-06T03:25:17;11.90;;;9.60;;
25073;SDS011;13066;52.042;5.648;2023-08-06T03:27:47;14.30;;;11.23;;
25073;SDS011;13066;52.042;5.648;2023-08-06T03:30:17;13.80;;;10.68;;
25073;SDS011;13066;52.042;5.648;2023-08-06T03:32:47;13.88;;;10.52;;
25073;SDS011;13066;52.042;5.648;2023-08-06T03:35:18;15.95;;;10.52;;
25073;SDS011;13066;52.042;5.648;2023-08-06T03:37:47;13.20;;;10.32;;
25073;SDS011;13066;52.042;5.648;2023-08-06T03:40:16;14.27;;;9.82;;
25073;SDS011;13066;52.042;5.648;2023-08-06T03:42:44;12.35;;;11.00;;
25073;SDS011;13066;52.042;5.648;2023-08-06T03:45:12;12.50;;;9.88;;
25073;SDS011;13066;52.042;5.648;2023-08-06T03:47:41;14.65;;;11.18;;
25073;SDS011;13066;52.042;5.648;2023-08-06T03:50:10;13.52;;;9.63;;
25073;SDS011;13066;52.042;5.648;2023-08-06T03:52:39;15.80;;;10.70;;
25073;SDS011;13066;52.042;5.648;2023-08-06T03:55:07;13.68;;;10.20;;
25073;SDS011;13066;52.042;5.648;2023-08-06T03:57:36;15.18;;;10.20;;
25073;SDS011;13066;52.042;5.648;2023-08-06T04:00:04;15.63;;;8.73;;
25073;SDS011;13066;52.042;5.648;2023-08-06T04:02:40;12.98;;;10.48;;
25073;SDS011;13066;52.042;5.648;2023-08-06T04:05:10;12.50;;;9.75;;
25073;SDS011;13066;52.042;5.648;2023-08-06T04:07:40;11.82;;;9.27;;
25073;SDS011;13066;52.042;5.648;2023-08-06T04:10:08;10.50;;;9.18;;
25073;SDS011;13066;52.042;5.648;2023-08-06T04:12:36;13.20;;;8.35;;
25073;SDS011;13066;52.042;5.648;2023-08-06T04:15:06;11.55;;;9.43;;
25073;SDS011;13066;52.042;5.648;2023-08-06T04:17:34;13.75;;;8.65;;
25073;SDS011;13066;52.042;5.648;2023-08-06T04:20:03;10.07;;;8.88;;
25073;SDS011;13066;52.042;5.648;2023-08-06T04:22:32;10.70;;;8.63;;
25073;SDS011;13066;52.042;5.648;2023-08-06T04:25:01;11.68;;;8.77;;
25073;SDS011;13066;52.042;5.648;2023-08-06T04:27:29;11.82;;;8.07;;
25073;SDS011;13066;52.042;5.648;2023-08-06T04:29:57;10.35;;;8.10;;
25073;SDS011;13066;52.042;5.648;2023-08-06T04:32:25;8.60;;;7.47;;
25073;SDS011;13066;52.042;5.648;2023-08-06T04:34:55;9.85;;;7.50;;
25073;SDS011;13066;52.042;5.648;2023-08-06T04:37:23;10.95;;;7.53;;
25073;SDS011;13066;52.042;5.648;2023-08-06T04:39:51;10.10;;;7.88;;
25073;SDS011;13066;52.042;5.648;2023-08-06T04:42:21;9.50;;;7.57;;
25073;SDS011;13066;52.042;5.648;2023-08-06T04:44:49;10.13;;;7.65;;
25073;SDS011;13066;52.042;5.648;2023-08-06T04:47:17;8.57;;;7.03;;
25073;SDS011;13066;52.042;5.648;2023-08-06T04:49:45;8.65;;;6.80;;
25073;SDS011;13066;52.042;5.648;2023-08-06T04:52:13;10.38;;;7.32;;
25073;SDS011;13066;52.042;5.648;2023-08-06T04:54:40;7.32;;;6.53;;
25073;SDS011;13066;52.042;5.648;2023-08-06T04:57:08;7.72;;;6.65;;
25073;SDS011;13066;52.042;5.648;2023-08-06T04:59:38;9.23;;;6.80;;
25073;SDS011;13066;52.042;5.648;2023-08-06T05:02:06;13.65;;;6.78;;
25073;SDS011;13066;52.042;5.648;2023-08-06T05:04:34;9.98;;;7.13;;
25073;SDS011;13066;52.042;5.648;2023-08-06T05:07:02;9.60;;;6.90;;
25073;SDS011;13066;52.042;5.648;2023-08-06T05:09:30;11.07;;;7.55;;
25073;SDS011;13066;52.042;5.648;2023-08-06T05:12:00;9.25;;;7.20;;
25073;SDS011;13066;52.042;5.648;2023-08-06T05:14:28;10.77;;;8.43;;
25073;SDS011;13066;52.042;5.648;2023-08-06T05:16:57;11.23;;;8.27;;
25073;SDS011;13066;52.042;5.648;2023-08-06T05:19:25;12.20;;;9.15;;
25073;SDS011;13066;52.042;5.648;2023-08-06T05:21:53;11.60;;;10.15;;
25073;SDS011;13066;52.042;5.648;2023-08-06T05:24:21;14.50;;;10.50;;
25073;SDS011;13066;52.042;5.648;2023-08-06T05:26:49;13.05;;;11.65;;
25073;SDS011;13066;52.042;5.648;2023-08-06T05:29:17;16.05;;;12.40;;
25073;SDS011;13066;52.042;5.648;2023-08-06T05:31:45;13.30;;;11.15;;
25073;SDS011;13066;52.042;5.648;2023-08-06T05:34:14;15.40;;;12.05;;
25073;SDS011;13066;52.042;5.648;2023-08-06T05:36:42;17.83;;;12.88;;
25073;SDS011;13066;52.042;5.648;2023-08-06T05:39:10;18.40;;;12.95;;
25073;SDS011;13066;52.042;5.648;2023-08-06T05:41:38;17.23;;;12.45;;
25073;SDS011;13066;52.042;5.648;2023-08-06T05:44:06;15.93;;;13.25;;
25073;SDS011;13066;52.042;5.648;2023-08-06T05:46:34;17.27;;;14.48;;
25073;SDS011;13066;52.042;5.648;2023-08-06T05:49:02;18.08;;;14.13;;
25073;SDS011;13066;52.042;5.648;2023-08-06T05:51:31;15.98;;;14.20;;
25073;SDS011;13066;52.042;5.648;2023-08-06T05:53:59;15.85;;;14.15;;
25073;SDS011;13066;52.042;5.648;2023-08-06T05:56:27;18.70;;;15.90;;
25073;SDS011;13066;52.042;5.648;2023-08-06T05:58:54;18.63;;;16.02;;
25073;SDS011;13066;52.042;5.648;2023-08-06T06:01:22;21.58;;;15.35;;
25073;SDS011;13066;52.042;5.648;2023-08-06T06:03:50;22.58;;;16.20;;
25073;SDS011;13066;52.042;5.648;2023-08-06T06:06:18;22.88;;;16.90;;
25073;SDS011;13066;52.042;5.648;2023-08-06T06:08:48;23.80;;;16.85;;
25073;SDS011;13066;52.042;5.648;2023-08-06T06:11:16;22.30;;;16.63;;
25073;SDS011;13066;52.042;5.648;2023-08-06T06:13:46;20.88;;;16.85;;
25073;SDS011;13066;52.042;5.648;2023-08-06T06:16:13;20.70;;;16.23;;
25073;SDS011;13066;52.042;5.648;2023-08-06T06:18:41;21.30;;;16.83;;
25073;SDS011;13066;52.042;5.648;2023-08-06T06:21:09;22.75;;;16.90;;
25073;SDS011;13066;52.042;5.648;2023-08-06T06:23:37;26.20;;;17.83;;
25073;SDS011;13066;52.042;5.648;2023-08-06T06:26:06;22.98;;;18.15;;
25073;SDS011;13066;52.042;5.648;2023-08-06T06:28:34;23.38;;;18.05;;
25073;SDS011;13066;52.042;5.648;2023-08-06T06:31:02;23.55;;;18.00;;
25073;SDS011;13066;52.042;5.648;2023-08-06T06:33:31;23.17;;;18.08;;
25073;SDS011;13066;52.042;5.648;2023-08-06T06:35:58;21.42;;;17.92;;
25073;SDS011;13066;52.042;5.648;2023-08-06T06:38:26;21.58;;;18.55;;
25073;SDS011;13066;52.042;5.648;2023-08-06T06:40:54;26.58;;;18.00;;
25073;SDS011;13066;52.042;5.648;2023-08-06T06:43:25;23.55;;;17.73;;
25073;SDS011;13066;52.042;5.648;2023-08-06T06:46:00;21.85;;;17.98;;
25073;SDS011;13066;52.042;5.648;2023-08-06T06:48:29;25.77;;;17.95;;
25073;SDS011;13066;52.042;5.648;2023-08-06T06:51:03;22.85;;;17.60;;
25073;SDS011;13066;52.042;5.648;2023-08-06T06:53:35;21.73;;;18.15;;
25073;SDS011;13066;52.042;5.648;2023-08-06T06:56:11;22.20;;;17.63;;
25073;SDS011;13066;52.042;5.648;2023-08-06T06:58:43;22.88;;;17.83;;
25073;SDS011;13066;52.042;5.648;2023-08-06T07:01:14;26.42;;;19.55;;
25073;SDS011;13066;52.042;5.648;2023-08-06T07:03:48;22.90;;;18.35;;
25073;SDS011;13066;52.042;5.648;2023-08-06T07:06:20;25.17;;;18.00;;
25073;SDS011;13066;52.042;5.648;2023-08-06T07:08:53;21.13;;;17.73;;
25073;SDS011;13066;52.042;5.648;2023-08-06T07:11:21;22.42;;;18.10;;
25073;SDS011;13066;52.042;5.648;2023-08-06T07:13:55;22.27;;;17.35;;
25073;SDS011;13066;52.042;5.648;2023-08-06T07:18:51;22.42;;;17.20;;
25073;SDS011;13066;52.042;5.648;2023-08-06T07:21:20;23.38;;;17.05;;
25073;SDS011;13066;52.042;5.648;2023-08-06T07:23:48;24.33;;;18.30;;
25073;SDS011;13066;52.042;5.648;2023-08-06T07:26:17;22.38;;;15.63;;
25073;SDS011;13066;52.042;5.648;2023-08-06T07:28:45;17.27;;;15.15;;
25073;SDS011;13066;52.042;5.648;2023-08-06T07:31:14;18.13;;;15.25;;
25073;SDS011;13066;52.042;5.648;2023-08-06T07:33:42;18.73;;;14.57;;
25073;SDS011;13066;52.042;5.648;2023-08-06T07:36:10;18.98;;;13.80;;
25073;SDS011;13066;52.042;5.648;2023-08-06T07:38:38;16.30;;;13.35;;
25073;SDS011;13066;52.042;5.648;2023-08-06T07:41:06;15.88;;;13.07;;
25073;SDS011;13066;52.042;5.648;2023-08-06T07:43:35;21.38;;;13.48;;
25073;SDS011;13066;52.042;5.648;2023-08-06T07:46:03;16.20;;;13.45;;
25073;SDS011;13066;52.042;5.648;2023-08-06T07:48:33;15.75;;;13.45;;
25073;SDS011;13066;52.042;5.648;2023-08-06T07:51:01;18.52;;;12.68;;
25073;SDS011;13066;52.042;5.648;2023-08-06T07:53:29;14.45;;;11.88;;
25073;SDS011;13066;52.042;5.648;2023-08-06T07:55:57;11.82;;;10.43;;
25073;SDS011;13066;52.042;5.648;2023-08-06T07:58:26;11.98;;;8.98;;
25073;SDS011;13066;52.042;5.648;2023-08-06T08:00:56;9.65;;;7.85;;
25073;SDS011;13066;52.042;5.648;2023-08-06T08:03:23;10.32;;;6.88;;
25073;SDS011;13066;52.042;5.648;2023-08-06T08:05:54;7.97;;;7.00;;
25073;SDS011;13066;52.042;5.648;2023-08-06T08:08:39;8.32;;;6.78;;
25073;SDS011;13066;52.042;5.648;2023-08-06T08:11:07;7.15;;;6.20;;
25073;SDS011;13066;52.042;5.648;2023-08-06T08:13:35;5.43;;;4.93;;
25073;SDS011;13066;52.042;5.648;2023-08-06T08:16:03;7.07;;;5.32;;
25073;SDS011;13066;52.042;5.648;2023-08-06T08:18:31;5.60;;;4.97;;
25073;SDS011;13066;52.042;5.648;2023-08-06T08:21:00;7.72;;;5.30;;
25073;SDS011;13066;52.042;5.648;2023-08-06T08:23:28;5.40;;;4.90;;
25073;SDS011;13066;52.042;5.648;2023-08-06T08:26:06;6.38;;;5.00;;
25073;SDS011;13066;52.042;5.648;2023-08-06T08:28:38;5.97;;;5.38;;
25073;SDS011;13066;52.042;5.648;2023-08-06T08:31:12;6.38;;;5.78;;
25073;SDS011;13066;52.042;5.648;2023-08-06T08:33:45;7.13;;;6.43;;
25073;SDS011;13066;52.042;5.648;2023-08-06T08:36:17;6.38;;;5.78;;
25073;SDS011;13066;52.042;5.648;2023-08-06T08:38:46;6.88;;;6.07;;
25073;SDS011;13066;52.042;5.648;2023-08-06T08:41:17;8.15;;;7.13;;
25073;SDS011;13066;52.042;5.648;2023-08-06T08:43:45;9.98;;;8.13;;
25073;SDS011;13066;52.042;5.648;2023-08-06T08:46:16;9.77;;;8.77;;
25073;SDS011;13066;52.042;5.648;2023-08-06T08:48:59;10.95;;;9.00;;
25073;SDS011;13066;52.042;5.648;2023-08-06T08:51:29;11.13;;;9.43;;
25073;SDS011;13066;52.042;5.648;2023-08-06T08:53:57;12.88;;;9.98;;
25073;SDS011;13066;52.042;5.648;2023-08-06T08:56:25;11.52;;;10.32;;
25073;SDS011;13066;52.042;5.648;2023-08-06T08:58:53;12.10;;;10.43;;
25073;SDS011;13066;52.042;5.648;2023-08-06T09:01:21;16.80;;;12.25;;
25073;SDS011;13066;52.042;5.648;2023-08-06T09:03:50;17.65;;;13.52;;
25073;SDS011;13066;52.042;5.648;2023-08-06T09:06:20;15.85;;;13.65;;
25073;SDS011;13066;52.042;5.648;2023-08-06T09:08:51;16.50;;;14.43;;
25073;SDS011;13066;52.042;5.648;2023-08-06T09:11:24;20.48;;;14.95;;
25073;SDS011;13066;52.042;5.648;2023-08-06T09:13:52;18.63;;;15.98;;
25073;SDS011;13066;52.042;5.648;2023-08-06T09:16:21;26.92;;;18.55;;
25073;SDS011;13066;52.042;5.648;2023-08-06T09:18:49;26.17;;;18.33;;
25073;SDS011;13066;52.042;5.648;2023-08-06T09:21:17;19.77;;;17.30;;
25073;SDS011;13066;52.042;5.648;2023-08-06T09:23:45;22.25;;;18.55;;
25073;SDS011;13066;52.042;5.648;2023-08-06T09:26:14;23.10;;;17.73;;
25073;SDS011;13066;52.042;5.648;2023-08-06T09:28:42;23.60;;;19.08;;
25073;SDS011;13066;52.042;5.648;2023-08-06T09:31:10;19.25;;;14.98;;
25073;SDS011;13066;52.042;5.648;2023-08-06T09:33:38;14.32;;;11.43;;
25073;SDS011;13066;52.042;5.648;2023-08-06T09:36:09;9.15;;;6.85;;
25073;SDS011;13066;52.042;5.648;2023-08-06T09:38:38;4.25;;;3.65;;
25073;SDS011;13066;52.042;5.648;2023-08-06T09:41:08;2.72;;;2.53;;
25073;SDS011;13066;52.042;5.648;2023-08-06T09:43:44;2.30;;;2.10;;
25073;SDS011;13066;52.042;5.648;2023-08-06T09:46:16;2.55;;;2.35;;
25073;SDS011;13066;52.042;5.648;2023-08-06T09:48:44;5.32;;;2.10;;
25073;SDS011;13066;52.042;5.648;2023-08-06T09:51:13;3.42;;;2.72;;
25073;SDS011;13066;52.042;5.648;2023-08-06T09:53:41;4.60;;;2.60;;
25073;SDS011;13066;52.042;5.648;2023-08-06T09:56:09;5.38;;;3.10;;
25073;SDS011;13066;52.042;5.648;2023-08-06T09:58:38;4.35;;;2.72;;
25073;SDS011;13066;52.042;5.648;2023-08-06T10:01:08;8.75;;;3.17;;
25073;SDS011;13066;52.042;5.648;2023-08-06T10:03:36;8.82;;;3.13;;
25073;SDS011;13066;52.042;5.648;2023-08-06T10:06:04;6.13;;;2.83;;
25073;SDS011;13066;52.042;5.648;2023-08-06T10:08:34;8.70;;;3.08;;
25073;SDS011;13066;52.042;5.648;2023-08-06T10:11:13;4.68;;;3.05;;
25073;SDS011;13066;52.042;5.648;2023-08-06T10:14:16;6.55;;;3.65;;
25073;SDS011;13066;52.042;5.648;2023-08-06T10:17:08;9.57;;;3.28;;
25073;SDS011;13066;52.042;5.648;2023-08-06T10:19:40;14.30;;;3.85;;
25073;SDS011;13066;52.042;5.648;2023-08-06T10:22:42;5.72;;;3.78;;
25073;SDS011;13066;52.042;5.648;2023-08-06T10:25:19;6.10;;;3.63;;
25073;SDS011;13066;52.042;5.648;2023-08-06T10:28:19;7.15;;;3.92;;
25073;SDS011;13066;52.042;5.648;2023-08-06T10:30:50;6.50;;;4.00;;
25073;SDS011;13066;52.042;5.648;2023-08-06T10:33:44;6.80;;;4.47;;
25073;SDS011;13066;52.042;5.648;2023-08-06T10:36:25;5.88;;;4.40;;
25073;SDS011;13066;52.042;5.648;2023-08-06T10:39:05;7.47;;;4.80;;
25073;SDS011;13066;52.042;5.648;2023-08-06T10:41:47;5.60;;;4.85;;
25073;SDS011;13066;52.042;5.648;2023-08-06T10:44:17;7.22;;;5.07;;
25073;SDS011;13066;52.042;5.648;2023-08-06T10:46:49;6.22;;;5.32;;
25073;SDS011;13066;52.042;5.648;2023-08-06T10:49:22;11.10;;;5.63;;
25073;SDS011;13066;52.042;5.648;2023-08-06T10:51:55;11.30;;;6.13;;
25073;SDS011;13066;52.042;5.648;2023-08-06T10:54:34;9.57;;;5.95;;
25073;SDS011;13066;52.042;5.648;2023-08-06T10:57:09;9.65;;;7.35;;
25073;SDS011;13066;52.042;5.648;2023-08-06T10:59:39;9.10;;;6.82;;
25073;SDS011;13066;52.042;5.648;2023-08-06T11:02:15;10.18;;;7.50;;
25073;SDS011;13066;52.042;5.648;2023-08-06T11:04:44;12.25;;;7.88;;
25073;SDS011;13066;52.042;5.648;2023-08-06T11:07:14;15.20;;;7.30;;
25073;SDS011;13066;52.042;5.648;2023-08-06T11:09:49;10.50;;;7.05;;
25073;SDS011;13066;52.042;5.648;2023-08-06T11:12:21;12.80;;;7.50;;
25073;SDS011;13066;52.042;5.648;2023-08-06T11:14:56;14.07;;;7.07;;
25073;SDS011;13066;52.042;5.648;2023-08-06T11:17:24;15.10;;;8.20;;
25073;SDS011;13066;52.042;5.648;2023-08-06T11:19:53;12.35;;;6.88;;
25073;SDS011;13066;52.042;5.648;2023-08-06T11:22:21;11.40;;;7.25;;
25073;SDS011;13066;52.042;5.648;2023-08-06T11:24:49;9.55;;;7.38;;
25073;SDS011;13066;52.042;5.648;2023-08-06T11:27:17;12.35;;;7.47;;
25073;SDS011;13066;52.042;5.648;2023-08-06T11:29:45;19.00;;;11.82;;
25073;SDS011;13066;52.042;5.648;2023-08-06T11:32:13;19.48;;;12.68;;
25073;SDS011;13066;52.042;5.648;2023-08-06T11:34:43;15.48;;;10.07;;
25073;SDS011;13066;52.042;5.648;2023-08-06T11:37:13;10.82;;;7.45;;
25073;SDS011;13066;52.042;5.648;2023-08-06T11:39:45;13.57;;;7.32;;
25073;SDS011;13066;52.042;5.648;2023-08-06T11:42:14;14.25;;;8.90;;
25073;SDS011;13066;52.042;5.648;2023-08-06T11:44:42;36.10;;;16.88;;
25073;SDS011;13066;52.042;5.648;2023-08-06T11:47:12;13.40;;;6.93;;
25073;SDS011;13066;52.042;5.648;2023-08-06T11:49:44;12.07;;;6.78;;
25073;SDS011;13066;52.042;5.648;2023-08-06T11:52:16;9.75;;;5.88;;
25073;SDS011;13066;52.042;5.648;2023-08-06T11:54:46;10.50;;;5.93;;
25073;SDS011;13066;52.042;5.648;2023-08-06T11:57:15;8.50;;;5.60;;
25073;SDS011;13066;52.042;5.648;2023-08-06T11:59:44;10.13;;;4.90;;
25073;SDS011;13066;52.042;5.648;2023-08-06T12:02:12;8.18;;;5.45;;
25073;SDS011;13066;52.042;5.648;2023-08-06T12:07:35;9.13;;;5.18;;
25073;SDS011;13066;52.042;5.648;2023-08-06T12:10:05;9.30;;;5.17;;
25073;SDS011;13066;52.042;5.648;2023-08-06T12:12:34;8.75;;;4.80;;
25073;SDS011;13066;52.042;5.648;2023-08-06T12:15:03;7.72;;;4.43;;
25073;SDS011;13066;52.042;5.648;2023-08-06T12:17:33;6.47;;;4.90;;
25073;SDS011;13066;52.042;5.648;2023-08-06T12:20:01;7.18;;;4.20;;
25073;SDS011;13066;52.042;5.648;2023-08-06T12:22:31;8.18;;;4.70;;
25073;SDS011;13066;52.042;5.648;2023-08-06T12:25:03;8.88;;;4.70;;
25073;SDS011;13066;52.042;5.648;2023-08-06T12:27:35;10.07;;;6.75;;
25073;SDS011;13066;52.042;5.648;2023-08-06T12:30:03;8.57;;;5.00;;
25073;SDS011;13066;52.042;5.648;2023-08-06T12:32:32;8.82;;;4.68;;
25073;SDS011;13066;52.042;5.648;2023-08-06T12:35:00;6.20;;;4.13;;
25073;SDS011;13066;52.042;5.648;2023-08-06T12:37:28;6.75;;;4.43;;
25073;SDS011;13066;52.042;5.648;2023-08-06T12:39:56;5.55;;;4.53;;
25073;SDS011;13066;52.042;5.648;2023-08-06T12:42:25;10.52;;;5.00;;
25073;SDS011;13066;52.042;5.648;2023-08-06T12:44:53;10.90;;;4.85;;
25073;SDS011;13066;52.042;5.648;2023-08-06T12:47:21;7.40;;;4.60;;
25073;SDS011;13066;52.042;5.648;2023-08-06T12:49:49;8.68;;;6.68;;
25073;SDS011;13066;52.042;5.648;2023-08-06T12:52:17;11.52;;;5.70;;
25073;SDS011;13066;52.042;5.648;2023-08-06T12:54:46;8.10;;;5.15;;
25073;SDS011;13066;52.042;5.648;2023-08-06T12:57:14;6.05;;;4.45;;
25073;SDS011;13066;52.042;5.648;2023-08-06T12:59:43;8.77;;;5.28;;
25073;SDS011;13066;52.042;5.648;2023-08-06T13:02:11;8.43;;;4.53;;
25073;SDS011;13066;52.042;5.648;2023-08-06T13:04:39;8.77;;;4.40;;
25073;SDS011;13066;52.042;5.648;2023-08-06T13:07:06;7.35;;;4.63;;
25073;SDS011;13066;52.042;5.648;2023-08-06T13:17:27;8.55;;;6.07;;
25073;SDS011;13066;52.042;5.648;2023-08-06T13:19:55;8.73;;;4.85;;
25073;SDS011;13066;52.042;5.648;2023-08-06T13:22:23;5.78;;;4.07;;
25073;SDS011;13066;52.042;5.648;2023-08-06T13:24:50;6.25;;;3.92;;
25073;SDS011;13066;52.042;5.648;2023-08-06T13:27:19;6.35;;;4.00;;
25073;SDS011;13066;52.042;5.648;2023-08-06T13:29:47;6.70;;;3.85;;
25073;SDS011;13066;52.042;5.648;2023-08-06T13:32:15;9.82;;;6.20;;
25073;SDS011;13066;52.042;5.648;2023-08-06T13:34:45;9.95;;;7.30;;
25073;SDS011;13066;52.042;5.648;2023-08-06T13:37:14;6.70;;;4.57;;
25073;SDS011;13066;52.042;5.648;2023-08-06T13:39:42;8.50;;;5.25;;
25073;SDS011;13066;52.042;5.648;2023-08-06T13:42:10;6.72;;;4.60;;
25073;SDS011;13066;52.042;5.648;2023-08-06T13:44:38;8.27;;;5.70;;
25073;SDS011;13066;52.042;5.648;2023-08-06T13:47:06;7.13;;;4.03;;
25073;SDS011;13066;52.042;5.648;2023-08-06T13:49:34;6.30;;;4.30;;
25073;SDS011;13066;52.042;5.648;2023-08-06T13:52:21;7.38;;;4.20;;
25073;SDS011;13066;52.042;5.648;2023-08-06T13:54:49;8.93;;;4.20;;
25073;SDS011;13066;52.042;5.648;2023-08-06T13:57:18;7.65;;;4.25;;
25073;SDS011;13066;52.042;5.648;2023-08-06T13:59:46;5.88;;;4.28;;
25073;SDS011;13066;52.042;5.648;2023-08-06T14:02:14;6.28;;;4.45;;
25073;SDS011;13066;52.042;5.648;2023-08-06T14:04:42;7.55;;;4.25;;
25073;SDS011;13066;52.042;5.648;2023-08-06T14:07:10;7.97;;;4.57;;
25073;SDS011;13066;52.042;5.648;2023-08-06T14:09:39;8.48;;;5.05;;
25073;SDS011;13066;52.042;5.648;2023-08-06T14:12:09;6.93;;;4.10;;
25073;SDS011;13066;52.042;5.648;2023-08-06T14:14:37;7.68;;;4.57;;
25073;SDS011;13066;52.042;5.648;2023-08-06T14:17:05;6.40;;;4.22;;
25073;SDS011;13066;52.042;5.648;2023-08-06T14:19:33;10.52;;;4.50;;
25073;SDS011;13066;52.042;5.648;2023-08-06T14:22:01;6.20;;;4.03;;
25073;SDS011;13066;52.042;5.648;2023-08-06T14:24:29;6.22;;;4.35;;
25073;SDS011;13066;52.042;5.648;2023-08-06T14:26:57;7.40;;;4.40;;
25073;SDS011;13066;52.042;5.648;2023-08-06T14:29:25;7.65;;;4.13;;
25073;SDS011;13066;52.042;5.648;2023-08-06T14:31:53;5.40;;;4.13;;
25073;SDS011;13066;52.042;5.648;2023-08-06T14:34:21;6.00;;;4.03;;
25073;SDS011;13066;52.042;5.648;2023-08-06T14:36:49;8.65;;;4.28;;
25073;SDS011;13066;52.042;5.648;2023-08-06T14:39:17;7.80;;;4.43;;
25073;SDS011;13066;52.042;5.648;2023-08-06T14:41:45;9.43;;;4.43;;
25073;SDS011;13066;52.042;5.648;2023-08-06T14:44:15;9.73;;;4.10;;
25073;SDS011;13066;52.042;5.648;2023-08-06T14:46:42;6.22;;;4.03;;
25073;SDS011;13066;52.042;5.648;2023-08-06T14:49:10;6.00;;;4.00;;
25073;SDS011;13066;52.042;5.648;2023-08-06T14:51:38;6.68;;;4.22;;
25073;SDS011;13066;52.042;5.648;2023-08-06T14:54:06;5.88;;;4.15;;
25073;SDS011;13066;52.042;5.648;2023-08-06T14:56:34;8.05;;;3.90;;
25073;SDS011;13066;52.042;5.648;2023-08-06T14:59:02;5.25;;;4.35;;
25073;SDS011;13066;52.042;5.648;2023-08-06T15:01:32;8.50;;;4.63;;
25073;SDS011;13066;52.042;5.648;2023-08-06T15:04:01;8.88;;;5.60;;